Time;durP1;ratioP1;P1;durP2;ratioP2;P2;SDS_P1;SDS_P2;PMS_P1;PMS_P2;Temp;Humidity;BMP_temperature;BMP_pressure;BME280_temperature;BME280_humidity;BME280_pressure;Samples;Min_cycle;Max_cycle;Signal;HPM_P1;HPM_P2
2022/01/20 00:01:55;;;;;;;9.50;5.57;;;;;;;5.13;100.00;100998.34;5030056;28;20426;-64
2022/01/20 00:27:34;;;;;;;9.55;5.07;;;;;;;4.90;100.00;101007.88;5051086;28;20358;-64
2022/01/20 00:37:31;;;;;;;10.63;5.88;;;;;;;4.90;100.00;101013.16;5050047;28;20032;-64
2022/01/20 00:39:58;;;;;;;10.65;6.05;;;;;;;4.92;100.00;101014.06;5049599;28;20029;-64
2022/01/20 00:42:25;;;;;;;12.98;6.45;;;;;;;4.97;100.00;101033.41;5050214;28;20025;-64
2022/01/20 00:44:51;;;;;;;9.88;6.32;;;;;;;4.96;100.00;101034.28;5049916;28;20222;-64
2022/01/20 00:47:17;;;;;;;10.20;6.15;;;;;;;4.93;100.00;101034.25;5050231;28;20132;-64
2022/01/20 00:49:44;;;;;;;13.18;6.28;;;;;;;4.90;100.00;101039.53;5049730;28;20031;-64
2022/01/20 00:52:10;;;;;;;13.07;7.15;;;;;;;4.91;100.00;101049.19;5050387;28;20035;-64
2022/01/20 00:54:35;;;;;;;13.23;6.25;;;;;;;4.90;100.00;101050.06;5049817;28;20029;-64
2022/01/20 00:57:02;;;;;;;14.13;6.65;;;;;;;4.92;100.00;101040.41;5050068;28;20037;-64
2022/01/20 00:59:29;;;;;;;13.70;6.60;;;;;;;4.93;100.00;101046.53;5049867;28;20055;-64
2022/01/20 01:01:57;;;;;;;9.43;5.60;;;;;;;4.98;100.00;101043.06;5045591;28;20040;-64
2022/01/20 01:04:24;;;;;;;10.77;5.70;;;;;;;4.93;100.00;101057.97;5038896;28;20461;-64
2022/01/20 01:09:33;;;;;;;10.23;6.13;;;;;;;4.88;100.00;101059.69;5044171;28;20036;-64
2022/01/20 01:12:03;;;;;;;14.60;7.07;;;;;;;4.88;100.00;101054.44;5042935;28;20460;-64
2022/01/20 01:14:31;;;;;;;12.20;6.05;;;;;;;4.88;100.00;101051.81;5021970;28;20056;-64
2022/01/20 01:24:47;;;;;;;12.13;5.80;;;;;;;4.92;100.00;101069.41;5028869;28;20053;-64
2022/01/20 01:27:13;;;;;;;16.30;5.88;;;;;;;4.83;100.00;101066.69;5039640;28;20040;-64
2022/01/20 01:30:05;;;;;;;10.40;6.10;;;;;;;4.87;100.00;101073.78;5046930;28;20040;-64
2022/01/20 01:32:49;;;;;;;14.80;7.30;;;;;;;4.91;100.00;101075.53;5038708;28;20032;-64
2022/01/20 01:35:16;;;;;;;10.90;7.18;;;;;;;4.86;100.00;101079.88;5035363;28;20021;-64
2022/01/20 01:40:21;;;;;;;14.30;6.60;;;;;;;4.87;100.00;101057.97;5039072;28;20025;-64
2022/01/20 01:42:49;;;;;;;12.50;6.55;;;;;;;4.90;100.00;101075.53;5047979;28;20029;-64
2022/01/20 01:45:24;;;;;;;14.20;6.30;;;;;;;4.89;100.00;101066.72;5045866;28;20033;-64
2022/01/20 01:47:50;;;;;;;13.00;6.63;;;;;;;4.85;100.00;101056.16;5048849;28;20028;-64
2022/01/20 01:50:16;;;;;;;11.55;6.32;;;;;;;4.86;100.00;101050.03;5048612;28;20017;-65
2022/01/20 01:52:41;;;;;;;14.93;6.63;;;;;;;4.87;100.00;101050.03;5048617;28;20488;-65
2022/01/20 01:55:08;;;;;;;13.32;7.43;;;;;;;4.73;100.00;101037.63;5048979;28;20033;-65
2022/01/20 01:57:33;;;;;;;14.43;6.57;;;;;;;4.79;100.00;101038.56;5048758;28;20103;-65
2022/01/20 01:59:59;;;;;;;13.43;7.28;;;;;;;4.77;100.00;101045.59;5048410;28;20029;-65
2022/01/20 02:02:24;;;;;;;12.23;6.80;;;;;;;4.85;100.00;101037.72;5049097;28;20063;-65
2022/01/20 02:04:50;;;;;;;12.82;5.43;;;;;;;4.80;100.00;101047.34;5047412;28;20075;-65
2022/01/20 02:21:01;;;;;;;12.57;5.57;;;;;;;4.87;100.00;101044.78;5027634;28;20423;-65
2022/01/20 02:23:27;;;;;;;11.48;6.60;;;;;;;4.87;100.00;101035.97;5027369;28;20025;-65
2022/01/20 02:25:53;;;;;;;11.23;6.57;;;;;;;4.83;100.00;101042.09;5028703;28;20028;-65
2022/01/20 02:28:19;;;;;;;12.90;6.00;;;;;;;4.88;100.00;101054.44;5028501;28;20025;-65
2022/01/20 02:30:44;;;;;;;13.10;6.40;;;;;;;4.79;100.00;101049.13;5029149;28;20018;-65
2022/01/20 02:33:16;;;;;;;11.32;7.13;;;;;;;4.82;100.00;101050.88;5036054;28;20076;-65
2022/01/20 02:35:47;;;;;;;14.38;6.40;;;;;;;4.83;100.00;101047.34;5028080;28;20060;-65
2022/01/20 02:38:40;;;;;;;13.52;6.78;;;;;;;4.81;100.00;101049.97;5028680;28;20065;-65
2022/01/20 02:46:37;;;;;;;10.35;5.97;;;;;;;4.85;100.00;101059.69;5028189;28;20044;-65
2022/01/20 02:49:03;;;;;;;14.18;6.78;;;;;;;4.91;100.00;101059.72;5029392;28;20026;-64
2022/01/20 02:51:28;;;;;;;17.55;7.18;;;;;;;4.92;100.00;101047.44;5032164;28;20029;-65
2022/01/20 02:53:54;;;;;;;14.13;7.38;;;;;;;4.89;100.00;101042.16;5032011;28;20488;-65
2022/01/20 02:56:19;;;;;;;16.27;9.40;;;;;;;4.95;100.00;101045.69;5031571;28;20033;-65
2022/01/20 02:58:45;;;;;;;16.00;8.05;;;;;;;4.87;100.00;101028.06;5034577;28;20401;-65
2022/01/20 03:01:10;;;;;;;13.32;6.13;;;;;;;4.81;100.00;101035.94;5046231;28;20024;-65
2022/01/20 03:03:36;;;;;;;13.35;6.60;;;;;;;4.77;100.00;101032.41;5041652;28;20017;-65
2022/01/20 03:06:03;;;;;;;16.02;7.28;;;;;;;4.83;100.00;101040.34;5031300;28;20021;-65
2022/01/20 03:08:29;;;;;;;16.33;7.15;;;;;;;4.87;100.00;101036.88;5034021;28;20111;-65
2022/01/20 03:10:55;;;;;;;13.02;7.00;;;;;;;4.91;100.00;101040.41;5036341;28;20524;-65
2022/01/20 03:13:20;;;;;;;15.98;6.80;;;;;;;4.93;100.00;101036.91;5047546;28;20041;-64
2022/01/20 03:15:46;;;;;;;15.60;8.30;;;;;;;4.91;100.00;101041.28;5050712;28;20487;-65
2022/01/20 03:18:11;;;;;;;13.27;7.07;;;;;;;4.94;100.00;101040.44;5042096;28;20049;-64
2022/01/20 03:20:37;;;;;;;13.90;8.02;;;;;;;4.95;100.00;101045.69;5029808;28;20025;-64
2022/01/20 03:23:03;;;;;;;15.57;8.20;;;;;;;4.98;100.00;101044.81;5031193;28;20049;-64
2022/01/20 03:25:29;;;;;;;13.55;7.45;;;;;;;4.91;100.00;101027.22;5030879;28;20101;-64
2022/01/20 03:27:56;;;;;;;16.65;7.38;;;;;;;4.94;100.00;101038.66;5029876;28;20032;-65
2022/01/20 03:30:22;;;;;;;15.77;8.48;;;;;;;4.91;100.00;101037.78;5030967;28;20393;-65
2022/01/20 03:32:49;;;;;;;15.88;7.65;;;;;;;4.90;100.00;101034.25;5040534;28;20487;-65
2022/01/20 03:35:14;;;;;;;16.92;8.13;;;;;;;4.73;100.00;101012.16;5030925;28;20040;-65
2022/01/20 03:37:40;;;;;;;15.93;8.27;;;;;;;4.83;100.00;101024.53;5031884;28;20397;-64
2022/01/20 03:40:07;;;;;;;17.75;8.50;;;;;;;4.83;100.00;101024.53;5030557;28;20040;-65
2022/01/20 03:42:33;;;;;;;15.80;8.23;;;;;;;4.85;100.00;101019.25;5031313;28;20542;-65
2022/01/20 03:45:02;;;;;;;18.27;8.90;;;;;;;4.81;100.00;101021.00;5031094;28;20013;-65
2022/01/20 03:47:28;;;;;;;16.35;8.45;;;;;;;4.86;100.00;101016.63;5030532;28;20107;-65
2022/01/20 03:52:40;;;;;;;18.08;9.45;;;;;;;4.97;100.00;101028.16;5029005;28;20052;-65
2022/01/20 03:55:06;;;;;;;16.98;8.73;;;;;;;4.96;100.00;101025.47;5030924;28;20029;-65
2022/01/20 03:57:31;;;;;;;16.65;8.57;;;;;;;4.86;100.00;101019.28;5030297;28;20478;-65
2022/01/20 03:59:57;;;;;;;14.32;7.88;;;;;;;4.91;100.00;101021.97;5030221;28;20025;-65
2022/01/20 04:02:22;;;;;;;15.38;9.00;;;;;;;4.93;100.00;101036.00;5045968;28;20086;-65
2022/01/20 04:04:47;;;;;;;15.38;8.57;;;;;;;4.95;100.00;101040.44;5049234;28;20028;-65
2022/01/20 04:07:13;;;;;;;14.52;8.95;;;;;;;4.96;100.00;101038.66;5050325;28;20025;-65
2022/01/20 04:09:38;;;;;;;16.13;7.55;;;;;;;5.02;100.00;101047.50;5050228;28;20388;-64
2022/01/20 04:12:04;;;;;;;18.25;8.57;;;;;;;5.01;100.00;101050.09;5050272;28;20021;-64
2022/01/20 04:14:32;;;;;;;16.92;8.73;;;;;;;5.04;100.00;101037.84;5050162;28;20029;-64
2022/01/20 04:19:27;;;;;;;15.80;8.13;;;;;;;5.05;100.00;101042.25;5030556;28;20038;-65
2022/01/20 04:21:53;;;;;;;15.80;8.00;;;;;;;5.09;100.00;101043.16;5029560;28;20045;-64
2022/01/20 04:24:19;;;;;;;15.13;8.93;;;;;;;5.15;100.00;101043.19;5030496;28;20096;-64
2022/01/20 04:26:46;;;;;;;20.35;7.97;;;;;;;5.10;100.00;101044.91;5029919;28;20022;-64
2022/01/20 04:29:12;;;;;;;15.65;7.90;;;;;;;5.03;100.00;101045.72;5030271;28;20486;-64
2022/01/20 04:31:39;;;;;;;17.95;9.02;;;;;;;5.00;100.00;101049.25;5039635;28;20129;-64
2022/01/20 04:34:07;;;;;;;17.27;9.50;;;;;;;5.04;100.00;101045.75;5030009;28;20022;-64
2022/01/20 04:36:37;;;;;;;20.67;9.07;;;;;;;5.00;100.00;101043.97;5029642;28;20025;-64
2022/01/20 04:39:05;;;;;;;15.15;8.20;;;;;;;5.02;100.00;101047.50;5029209;28;20112;-64
2022/01/20 04:41:31;;;;;;;18.50;9.40;;;;;;;5.11;100.00;101066.00;5030232;28;20021;-64
2022/01/20 04:44:01;;;;;;;17.38;8.25;;;;;;;5.14;100.00;101067.81;5030165;28;20037;-64
2022/01/20 04:46:36;;;;;;;16.35;8.90;;;;;;;5.17;100.00;101073.09;5029549;28;20036;-64
2022/01/20 04:57:18;;;;;;;17.88;8.63;;;;;;;5.17;100.00;101052.84;5008425;28;20041;-64
2022/01/20 04:59:45;;;;;;;28.65;10.30;;;;;;;5.15;100.00;101044.06;5029514;28;20652;-64
2022/01/20 05:02:13;;;;;;;21.10;10.75;;;;;;;5.07;100.00;101045.75;5043716;28;20032;-64
2022/01/20 05:04:39;;;;;;;16.88;9.13;;;;;;;5.08;100.00;101047.53;5049513;28;20027;-64
2022/01/20 05:07:06;;;;;;;20.33;9.60;;;;;;;5.03;100.00;101053.66;5049247;28;20385;-64
2022/01/20 05:09:32;;;;;;;22.90;9.23;;;;;;;5.02;100.00;101058.06;5036668;28;20087;-64
2022/01/20 05:12:01;;;;;;;17.70;8.90;;;;;;;5.06;100.00;101048.38;5042266;28;20028;-64
2022/01/20 05:14:28;;;;;;;18.80;8.82;;;;;;;5.08;100.00;101060.72;5043725;28;20060;-64
2022/01/20 05:16:55;;;;;;;20.10;9.07;;;;;;;5.13;100.00;101060.75;5045731;28;20051;-64
2022/01/20 05:19:22;;;;;;;19.80;9.60;;;;;;;5.20;100.00;101063.44;5034142;28;20060;-64
2022/01/20 05:21:48;;;;;;;21.42;9.60;;;;;;;5.12;100.00;101059.84;5027821;28;20029;-64
2022/01/20 05:24:13;;;;;;;16.50;7.97;;;;;;;5.15;100.00;101054.63;5029514;28;20044;-64
2022/01/20 05:26:39;;;;;;;19.45;8.68;;;;;;;5.14;100.00;101052.84;5028123;28;20398;-64
2022/01/20 05:29:04;;;;;;;17.85;9.38;;;;;;;5.12;100.00;101044.03;5028978;28;20033;-64
2022/01/20 05:31:29;;;;;;;20.02;10.65;;;;;;;5.16;100.00;101048.47;5036265;28;20028;-64
2022/01/20 05:33:55;;;;;;;36.08;11.50;;;;;;;5.18;100.00;101057.28;5029404;28;20400;-64
2022/01/20 05:36:20;;;;;;;14.90;9.23;;;;;;;5.10;100.00;101045.81;5028872;28;20036;-64
2022/01/20 05:38:46;;;;;;;15.90;8.10;;;;;;;5.14;100.00;101046.69;5029325;28;20515;-64
2022/01/20 05:41:12;;;;;;;16.13;9.50;;;;;;;5.08;100.00;101036.09;5029038;28;20029;-64
2022/01/20 05:43:37;;;;;;;17.63;10.45;;;;;;;5.03;100.00;101017.63;5029128;28;20028;-64
2022/01/20 05:46:04;;;;;;;17.30;8.98;;;;;;;5.10;100.00;101029.09;5028893;28;20026;-64
2022/01/20 05:48:35;;;;;;;18.73;9.50;;;;;;;5.14;100.00;101029.09;5028931;28;20032;-64
2022/01/20 05:51:04;;;;;;;21.50;9.85;;;;;;;5.16;100.00;101040.53;5029321;28;20038;-64
2022/01/20 05:53:31;;;;;;;23.17;9.55;;;;;;;5.16;100.00;101045.81;5028768;28;20175;-64
2022/01/20 05:55:57;;;;;;;23.23;9.70;;;;;;;5.14;100.00;101052.84;5029108;28;20033;-64
2022/01/20 05:58:22;;;;;;;26.17;9.38;;;;;;;5.18;100.00;101062.53;5028466;28;20021;-64
2022/01/20 06:00:48;;;;;;;30.17;9.90;;;;;;;5.13;100.00;101050.19;5029512;28;20037;-64
2022/01/20 06:05:58;;;;;;;18.92;9.82;;;;;;;5.07;100.00;101058.94;5048595;28;20035;-64
2022/01/20 06:08:24;;;;;;;21.27;9.50;;;;;;;5.02;100.00;101063.34;5048567;28;20076;-64
2022/01/20 06:10:49;;;;;;;19.90;9.50;;;;;;;5.01;100.00;101053.63;5048761;28;20025;-64
2022/01/20 06:13:15;;;;;;;23.08;9.57;;;;;;;4.98;100.00;101053.63;5048236;28;20029;-64
2022/01/20 06:15:40;;;;;;;19.55;8.45;;;;;;;4.93;100.00;101059.72;5049204;28;20090;-64
2022/01/20 06:18:06;;;;;;;16.08;9.05;;;;;;;5.00;100.00;101078.25;5048499;28;20078;-64
2022/01/20 06:20:32;;;;;;;21.02;9.63;;;;;;;4.99;100.00;101081.75;5047950;28;20477;-64
2022/01/20 06:22:58;;;;;;;20.08;9.25;;;;;;;4.96;100.00;101076.44;5049817;28;20533;-64
2022/01/20 06:25:24;;;;;;;24.13;10.15;;;;;;;4.94;100.00;101064.16;5052213;28;20068;-64
2022/01/20 06:27:50;;;;;;;26.08;9.65;;;;;;;4.87;100.00;101079.03;5052375;28;20370;-65
2022/01/20 06:30:15;;;;;;;23.95;9.38;;;;;;;4.91;100.00;101086.06;5050550;28;20028;-65
2022/01/20 06:32:41;;;;;;;13.68;7.68;;;;;;;4.93;100.00;101071.16;5052145;28;20032;-64
2022/01/20 06:35:08;;;;;;;22.95;9.48;;;;;;;4.95;100.00;101076.44;5040338;28;20045;-64
2022/01/20 06:37:33;;;;;;;17.55;7.82;;;;;;;4.97;100.00;101064.16;5032685;28;20036;-66
2022/01/20 06:39:59;;;;;;;16.77;8.40;;;;;;;4.86;100.00;101069.34;5032268;28;20029;-66
2022/01/20 06:42:25;;;;;;;18.95;8.88;;;;;;;4.85;100.00;101059.69;5031861;28;20033;-65
2022/01/20 06:44:50;;;;;;;13.18;7.65;;;;;;;4.75;100.00;101046.44;5032291;28;20017;-64
2022/01/20 06:47:15;;;;;;;15.50;7.55;;;;;;;4.77;100.00;101040.31;5034291;28;20043;-65
2022/01/20 06:49:41;;;;;;;17.02;8.18;;;;;;;4.79;100.00;101049.13;5030570;28;20061;-64
2022/01/20 06:52:07;;;;;;;17.60;8.48;;;;;;;4.78;100.00;101046.44;5031537;28;20402;-63
2022/01/20 06:54:34;;;;;;;18.25;8.85;;;;;;;4.74;100.00;101056.09;5031486;28;20021;-63
2022/01/20 06:57:00;;;;;;;18.17;8.95;;;;;;;4.71;100.00;101060.47;5031666;28;20025;-65
2022/01/20 06:59:25;;;;;;;18.45;8.10;;;;;;;4.63;100.00;101052.47;5031142;28;20265;-65
2022/01/20 07:01:51;;;;;;;16.05;8.80;;;;;;;4.62;100.00;101061.28;5043305;28;20040;-64
2022/01/20 07:04:18;;;;;;;19.45;8.70;;;;;;;4.63;100.00;101070.94;5051726;28;20384;-63
2022/01/20 07:06:43;;;;;;;20.35;10.30;;;;;;;4.57;100.00;101081.44;5051869;28;20033;-64
2022/01/20 07:09:10;;;;;;;110.32;21.17;;;;;;;4.47;100.00;101066.41;5047874;28;20025;-64
2022/01/20 07:11:37;;;;;;;82.55;17.45;;;;;;;4.51;100.00;101083.13;5033323;28;20454;-64
2022/01/20 07:14:03;;;;;;;37.55;10.00;;;;;;;4.50;100.00;101082.25;5047713;28;20458;-64
2022/01/20 07:16:29;;;;;;;13.88;7.85;;;;;;;4.46;100.00;101101.53;5043745;28;20061;-64
2022/01/20 07:18:55;;;;;;;18.23;8.18;;;;;;;4.36;100.00;101102.31;5042712;28;20104;-64
2022/01/20 07:21:21;;;;;;;22.00;12.27;;;;;;;4.42;100.00;101117.28;5040201;28;20040;-64
2022/01/20 07:23:47;;;;;;;39.35;23.13;;;;;;;4.41;100.00;101118.16;5051183;28;20434;-64
2022/01/20 07:26:13;;;;;;;29.33;17.63;;;;;;;4.42;100.00;101120.78;5051271;28;20075;-64
2022/01/20 07:28:38;;;;;;;21.33;11.93;;;;;;;4.41;100.00;101128.69;5047163;28;20484;-64
2022/01/20 07:31:04;;;;;;;16.65;9.38;;;;;;;4.49;100.00;101135.81;5034913;28;20100;-64
2022/01/20 07:33:29;;;;;;;17.33;9.05;;;;;;;4.43;100.00;101125.19;5035650;28;20049;-64
2022/01/20 07:35:55;;;;;;;19.85;9.27;;;;;;;4.61;100.00;101146.44;5028473;28;20841;-64
2022/01/20 07:38:23;;;;;;;23.13;9.38;;;;;;;4.59;100.00;101156.09;5030114;28;20033;-64
2022/01/20 07:40:49;;;;;;;21.83;10.60;;;;;;;4.61;100.00;101164.88;5049392;28;20055;-64
2022/01/20 07:43:15;;;;;;;19.98;9.98;;;;;;;4.67;100.00;101169.34;5049384;28;20051;-64
2022/01/20 07:45:40;;;;;;;18.67;8.93;;;;;;;4.66;100.00;101164.94;5051057;28;20036;-64
2022/01/20 07:48:06;;;;;;;15.30;8.82;;;;;;;4.78;100.00;101176.47;5050920;28;20033;-64
2022/01/20 07:50:31;;;;;;;15.32;8.30;;;;;;;4.83;100.00;101166.84;5050339;28;20148;-64
2022/01/20 07:52:57;;;;;;;16.65;8.40;;;;;;;4.79;100.00;101169.44;5049820;28;20029;-64
2022/01/20 07:55:23;;;;;;;18.02;9.35;;;;;;;4.74;100.00;101168.53;5048974;28;20132;-64
2022/01/20 07:57:48;;;;;;;17.88;9.27;;;;;;;4.82;100.00;101175.66;5050836;28;20036;-64
2022/01/20 08:00:14;;;;;;;20.33;10.20;;;;;;;4.88;100.00;101186.22;5049586;28;20057;-64
2022/01/20 08:02:39;;;;;;;19.35;10.07;;;;;;;4.90;100.00;101181.84;5050529;28;20024;-64
2022/01/20 08:05:05;;;;;;;23.77;10.02;;;;;;;4.95;100.00;101174.88;5049699;28;20572;-64
2022/01/20 08:07:31;;;;;;;21.30;10.32;;;;;;;5.04;100.00;101182.84;5047559;28;20040;-64
2022/01/20 08:09:58;;;;;;;24.88;13.68;;;;;;;5.07;100.00;101164.41;5036585;28;20024;-64
2022/01/20 08:12:25;;;;;;;21.67;11.43;;;;;;;5.05;100.00;101162.66;5046213;28;20504;-64
2022/01/20 08:14:50;;;;;;;17.08;10.40;;;;;;;4.95;100.00;101156.41;5039315;28;20332;-64
2022/01/20 08:17:16;;;;;;;19.05;10.82;;;;;;;4.91;100.00;101159.88;5033567;28;20071;-64
2022/01/20 08:19:42;;;;;;;28.90;13.27;;;;;;;4.98;100.00;101164.34;5031815;28;20021;-64
2022/01/20 08:22:07;;;;;;;47.30;23.25;;;;;;;5.07;100.00;101167.03;5050005;28;20025;-64
2022/01/20 08:24:33;;;;;;;56.15;28.50;;;;;;;5.11;100.00;101174.13;5041780;28;20079;-64
2022/01/20 08:26:58;;;;;;;32.13;16.75;;;;;;;5.12;100.00;101169.75;5028800;28;20052;-64
2022/01/20 08:29:23;;;;;;;38.00;20.35;;;;;;;5.17;100.00;101174.16;5031925;28;20036;-64
2022/01/20 08:31:49;;;;;;;28.48;15.68;;;;;;;5.19;100.00;101182.97;5044929;28;20385;-64
2022/01/20 08:34:15;;;;;;;37.35;19.75;;;;;;;5.25;100.00;101195.34;5032618;28;20100;-64
2022/01/20 08:36:41;;;;;;;47.30;24.10;;;;;;;5.34;100.00;101205.94;5050164;28;20495;-64
2022/01/20 08:41:51;;;;;;;35.70;20.77;;;;;;;5.36;100.00;101202.44;5038208;28;20048;-64
2022/01/20 08:44:16;;;;;;;21.35;11.00;;;;;;;5.45;100.00;101217.47;5029784;28;20029;-64
2022/01/20 08:46:42;;;;;;;24.55;11.93;;;;;;;5.47;100.00;101220.13;5029767;28;20029;-64
2022/01/20 08:49:07;;;;;;;20.08;10.50;;;;;;;5.44;100.00;101217.47;5035240;28;20056;-63
2022/01/20 08:51:33;;;;;;;19.05;11.43;;;;;;;5.57;100.00;101217.53;5047699;28;20033;-63
2022/01/20 08:53:59;;;;;;;20.00;10.10;;;;;;;5.53;100.00;101199.03;5028808;28;20486;-63
2022/01/20 08:56:24;;;;;;;19.77;10.90;;;;;;;5.50;100.00;101210.47;5029938;28;20104;-63
2022/01/20 08:58:49;;;;;;;25.65;12.70;;;;;;;5.53;100.00;101210.50;5030420;28;20034;-63
2022/01/20 09:01:15;;;;;;;19.75;11.60;;;;;;;5.48;100.00;101204.28;5046170;28;20131;-63
2022/01/20 09:03:42;;;;;;;29.50;16.60;;;;;;;5.52;100.00;101231.59;5049537;28;20429;-64
2022/01/20 09:06:08;;;;;;;19.67;11.48;;;;;;;5.49;100.00;101237.72;5041578;28;20044;-63
2022/01/20 09:08:34;;;;;;;22.15;9.23;;;;;;;5.45;100.00;101249.13;5029294;28;20032;-63
2022/01/20 09:11:01;;;;;;;20.23;11.38;;;;;;;5.52;100.00;101252.69;5028795;28;20045;-63
2022/01/20 09:16:10;;;;;;;;;;;;;;;5.51;100.00;101235.06;5046953;28;20032;-63
2022/01/20 09:18:36;;;;;;;14.18;8.98;;;;;;;5.54;100.00;101240.38;5043706;28;19913;-63
2022/01/20 09:21:02;;;;;;;17.20;9.20;;;;;;;5.60;100.00;101237.78;5032525;28;20496;-64
2022/01/20 09:23:29;;;;;;;17.35;10.23;;;;;;;5.58;100.00;101226.34;5030600;28;20029;-64
2022/01/20 09:25:54;;;;;;;18.52;10.55;;;;;;;5.68;100.00;101222.91;5029424;28;20021;-64
2022/01/20 09:28:20;;;;;;;18.20;10.85;;;;;;;5.73;100.00;101221.16;5031139;28;20523;-64
2022/01/20 09:30:46;;;;;;;23.83;11.05;;;;;;;5.81;100.00;101207.16;5030261;28;20044;-64
2022/01/20 09:33:15;;;;;;;19.20;10.32;;;;;;;5.83;100.00;101213.31;5035750;28;20033;-64
2022/01/20 09:35:42;;;;;;;17.17;8.52;;;;;;;5.84;100.00;101223.03;5028760;28;20474;-64
2022/01/20 09:38:09;;;;;;;25.55;11.63;;;;;;;5.85;100.00;101210.72;5029984;28;20029;-63
2022/01/20 09:40:36;;;;;;;21.15;10.65;;;;;;;5.95;100.00;101212.50;5028835;28;20431;-64
2022/01/20 09:43:02;;;;;;;19.05;10.35;;;;;;;6.00;100.00;101213.41;5028965;28;20607;-64
2022/01/20 09:45:28;;;;;;;18.02;9.02;;;;;;;6.05;100.00;101219.59;5029017;28;20492;-64
2022/01/20 09:47:54;;;;;;;16.33;9.77;;;;;;;6.06;100.00;101219.59;5029311;28;20029;-64
2022/01/20 09:50:22;;;;;;;13.65;9.90;;;;;;;6.11;100.00;101217.00;5028878;28;20025;-64
2022/01/20 09:52:49;;;;;;;14.45;8.77;;;;;;;6.18;100.00;101213.50;5029029;28;20033;-64
2022/01/20 09:55:15;;;;;;;15.68;8.90;;;;;;;6.26;100.00;101209.16;5028496;28;20037;-64
2022/01/20 09:57:41;;;;;;;20.25;9.93;;;;;;;6.23;100.00;101201.19;5030351;28;20033;-64
2022/01/20 10:00:11;;;;;;;13.57;8.02;;;;;;;6.31;100.00;101212.69;5033472;28;20048;-64
2022/01/20 10:02:58;;;;;;;17.38;8.98;;;;;;;6.33;100.00;101216.19;5050078;28;20377;-64
2022/01/20 10:05:31;;;;;;;17.00;7.82;;;;;;;6.28;100.00;101220.59;5052465;28;20021;-64
2022/01/20 10:08:18;;;;;;;14.77;8.43;;;;;;;6.30;100.00;101213.56;5052582;28;20480;-64
2022/01/20 10:10:49;;;;;;;17.30;7.63;;;;;;;6.37;100.00;101210.97;5053037;28;20103;-65
2022/01/20 10:13:18;;;;;;;13.85;8.32;;;;;;;6.41;100.00;101211.81;5053117;28;20025;-64
2022/01/20 10:16:06;;;;;;;18.67;7.95;;;;;;;6.41;100.00;101204.78;5052891;28;20025;-64
2022/01/20 10:18:33;;;;;;;16.00;10.27;;;;;;;6.43;100.00;101204.78;5052897;28;20490;-65
2022/01/20 10:21:04;;;;;;;18.75;8.50;;;;;;;6.48;100.00;101214.50;5052122;28;20039;-65
2022/01/20 10:23:37;;;;;;;18.25;10.05;;;;;;;6.50;100.00;101220.69;5052419;28;20025;-64
2022/01/20 10:26:07;;;;;;;15.48;8.32;;;;;;;6.51;100.00;101224.19;5052270;28;20021;-64
2022/01/20 10:28:50;;;;;;;15.50;8.27;;;;;;;6.58;100.00;101225.97;5052563;28;20500;-65
2022/01/20 10:31:19;;;;;;;14.85;9.05;;;;;;;6.57;100.00;101230.38;5052344;28;20106;-65
2022/01/20 10:33:46;;;;;;;17.58;9.40;;;;;;;6.61;100.00;101236.56;5032878;28;20032;-64
2022/01/20 10:36:12;;;;;;;17.88;8.68;;;;;;;6.58;100.00;101231.25;5032623;28;20548;-64
2022/01/20 10:38:49;;;;;;;14.07;9.38;;;;;;;6.62;100.00;101233.06;5032998;28;20527;-65
2022/01/20 10:41:30;;;;;;;18.90;9.32;;;;;;;6.69;100.00;101243.63;5032089;28;20075;-65
2022/01/20 10:44:11;;;;;;;16.08;9.13;;;;;;;6.73;100.00;101241.88;5032030;28;20455;-65
2022/01/20 10:47:10;;;;;;;15.98;7.65;;;;;;;6.86;100.00;101248.97;5031995;28;20108;-64
2022/01/20 10:49:35;;;;;;;17.20;8.18;;;;;;;6.84;100.00;101240.13;5023160;28;20512;-64
2022/01/20 10:52:04;;;;;;;11.30;8.02;;;;;;;6.84;100.00;101240.13;5031995;28;20112;-64
2022/01/20 10:54:41;;;;;;;16.70;7.88;;;;;;;6.79;100.00;101241.88;5031685;28;20029;-64
2022/01/20 10:57:08;;;;;;;17.10;8.23;;;;;;;6.76;100.00;101231.31;5032068;28;20561;-64
2022/01/20 10:59:35;;;;;;;20.27;9.32;;;;;;;6.82;100.00;101241.88;5031120;28;20030;-64
2022/01/20 11:02:09;;;;;;;15.52;6.80;;;;;;;6.78;100.00;101239.25;5044297;28;20025;-64
2022/01/20 11:04:37;;;;;;;18.17;7.72;;;;;;;6.88;100.00;101231.34;5050588;28;20434;-65
2022/01/20 11:07:06;;;;;;;23.55;7.38;;;;;;;6.93;100.00;101224.31;5051370;28;20075;-64
2022/01/20 11:09:35;;;;;;;14.27;5.97;;;;;;;7.00;100.00;101230.47;5050552;28;20118;-64
2022/01/20 11:12:02;;;;;;;17.60;5.65;;;;;;;7.05;100.00;101219.00;5051557;28;20441;-63
2022/01/20 11:14:29;;;;;;;17.15;5.43;;;;;;;7.02;100.00;101213.72;5040100;28;20380;-66
2022/01/20 11:16:58;;;;;;;21.33;5.90;;;;;;;7.15;100.00;101226.06;5038176;28;20624;-65
2022/01/20 11:19:24;;;;;;;19.55;6.13;;;;;;;7.06;100.00;101210.19;5031127;28;20021;-64
2022/01/20 11:21:50;;;;;;;15.85;5.80;;;;;;;7.10;100.00;101211.94;5032213;28;20036;-64
2022/01/20 11:24:21;;;;;;;9.55;4.70;;;;;;;7.09;100.00;101211.94;5031502;28;20030;-64
2022/01/20 11:26:55;;;;;;;12.18;7.13;;;;;;;7.12;100.00;101210.19;5031400;28;20393;-66
2022/01/20 11:29:37;;;;;;;13.80;5.53;;;;;;;7.10;100.00;101205.81;5033571;28;20381;-62
2022/01/20 11:32:15;;;;;;;11.80;5.25;;;;;;;7.03;100.00;101218.13;5040281;28;20017;-63
2022/01/20 11:34:41;;;;;;;10.43;4.68;;;;;;;7.06;100.00;101202.25;5031678;28;20041;-64
2022/01/20 11:37:10;;;;;;;11.30;5.03;;;;;;;7.02;100.00;101203.13;5029592;28;20083;-64
2022/01/20 11:39:35;;;;;;;11.27;5.22;;;;;;;6.93;100.00;101187.28;5031241;28;20071;-64
2022/01/20 11:42:01;;;;;;;13.02;6.07;;;;;;;6.99;100.00;101207.53;5030812;28;20447;-65
2022/01/20 11:44:31;;;;;;;8.75;5.13;;;;;;;6.91;100.00;101207.53;5031544;28;20033;-65
2022/01/20 11:47:09;;;;;;;13.43;5.20;;;;;;;6.95;100.00;101201.38;5030499;28;20041;-65
2022/01/20 11:49:36;;;;;;;8.77;3.92;;;;;;;7.00;100.00;101198.72;5030728;28;20456;-63
2022/01/20 11:52:02;;;;;;;12.60;4.95;;;;;;;6.98;100.00;101196.09;5031007;28;20490;-63
2022/01/20 11:54:31;;;;;;;9.77;5.28;;;;;;;6.94;100.00;101183.72;5030847;28;20087;-63
2022/01/20 11:57:10;;;;;;;14.32;4.45;;;;;;;7.01;100.00;101185.50;5030737;28;20056;-64
2022/01/20 11:59:42;;;;;;;7.68;4.88;;;;;;;7.05;100.00;101181.97;5030361;28;20080;-66
2022/01/20 12:02:08;;;;;;;11.27;4.50;;;;;;;7.18;100.00;101182.88;5044851;28;20128;-65
2022/01/20 12:04:41;;;;;;;13.95;4.97;;;;;;;7.26;100.00;101173.16;5050625;28;20028;-64
2022/01/20 12:07:09;;;;;;;13.68;4.88;;;;;;;7.36;100.00;101167.88;5050723;28;20025;-65
2022/01/20 12:09:37;;;;;;;12.82;5.07;;;;;;;7.36;100.00;101167.88;5050069;28;20053;-64
2022/01/20 12:12:17;;;;;;;11.80;4.82;;;;;;;7.39;99.87;101169.59;5050259;28;20051;-64
2022/01/20 12:14:43;;;;;;;10.23;4.40;;;;;;;7.40;100.00;101169.59;5050333;28;20028;-65
2022/01/20 12:17:14;;;;;;;8.60;5.05;;;;;;;7.42;100.00;101166.94;5049777;28;20072;-64
2022/01/20 12:19:40;;;;;;;8.57;4.70;;;;;;;7.43;99.08;101168.72;5050120;28;20028;-64
2022/01/20 12:22:06;;;;;;;11.77;4.07;;;;;;;7.29;99.08;101163.44;5050293;28;20059;-66
2022/01/20 12:24:34;;;;;;;9.18;4.15;;;;;;;7.28;99.10;101164.31;5050085;28;20032;-67
2022/01/20 12:27:01;;;;;;;8.07;3.80;;;;;;;7.21;98.70;101173.16;5048816;28;20398;-64
2022/01/20 12:29:37;;;;;;;9.68;4.13;;;;;;;7.16;98.77;101169.63;5048381;28;20086;-63
2022/01/20 12:32:11;;;;;;;9.02;4.63;;;;;;;7.06;98.23;101167.88;5046056;28;20052;-64
2022/01/20 12:34:36;;;;;;;12.00;4.63;;;;;;;7.04;98.18;101164.34;5029804;28;20387;-64
2022/01/20 12:37:02;;;;;;;10.50;5.32;;;;;;;7.11;98.56;101158.19;5029491;28;20025;-65
2022/01/20 12:39:29;;;;;;;10.05;4.38;;;;;;;7.03;97.72;101133.50;5030004;28;20021;-65
2022/01/20 12:42:15;;;;;;;9.57;4.10;;;;;;;7.12;97.97;101153.75;5029870;28;20171;-65
2022/01/20 12:47:41;;;;;;;10.82;4.38;;;;;;;6.97;97.76;101156.41;5028748;28;20482;-64